Terminal Aerodrome Forecast
Issued by NWS

Home | Current Version | Previous Version | Text Only | Print | Product List | Glossary On
Versions: 1 2 3 4 5 6 7 8 9 10 11 12 13 14 15 16
000
FTUS41 KGYX 221303 AAA
TAFPSM
TAF AMD
KPSM 221303Z 2213/2312 04006KT P6SM VCSH SCT005 BKN010 OVC120
     FM221400 05005KT P6SM OVC030=

USA.gov is the U.S. government's official web portal to all federal, state and local government web resources and services.